sensor_id;sensor_type;location;lat;lon;timestamp;P1;durP1;ratioP1;P2;durP2;ratioP2
29848;SDS011;16728;50.832;5.590;2023-02-16T00:01:46;35.20;;;23.88;;
29848;SDS011;16728;50.832;5.590;2023-02-16T00:04:48;34.50;;;23.05;;
29848;SDS011;16728;50.832;5.590;2023-02-16T00:07:52;37.55;;;23.98;;
29848;SDS011;16728;50.832;5.590;2023-02-16T00:10:55;35.33;;;22.88;;
29848;SDS011;16728;50.832;5.590;2023-02-16T00:14:16;35.10;;;23.38;;
29848;SDS011;16728;50.832;5.590;2023-02-16T00:20:21;36.45;;;21.98;;
29848;SDS011;16728;50.832;5.590;2023-02-16T00:23:23;37.00;;;22.88;;
29848;SDS011;16728;50.832;5.590;2023-02-16T00:26:32;33.83;;;21.35;;
29848;SDS011;16728;50.832;5.590;2023-02-16T00:29:36;34.72;;;21.92;;
29848;SDS011;16728;50.832;5.590;2023-02-16T00:32:38;37.13;;;23.37;;
29848;SDS011;16728;50.832;5.590;2023-02-16T00:35:39;35.67;;;23.40;;
29848;SDS011;16728;50.832;5.590;2023-02-16T00:38:43;35.20;;;22.67;;
29848;SDS011;16728;50.832;5.590;2023-02-16T00:41:45;34.47;;;23.35;;
29848;SDS011;16728;50.832;5.590;2023-02-16T00:44:51;34.83;;;23.67;;
29848;SDS011;16728;50.832;5.590;2023-02-16T00:47:54;34.63;;;23.00;;
29848;SDS011;16728;50.832;5.590;2023-02-16T00:50:57;35.33;;;23.03;;
29848;SDS011;16728;50.832;5.590;2023-02-16T00:53:58;37.22;;;24.13;;
29848;SDS011;16728;50.832;5.590;2023-02-16T00:57:01;35.00;;;23.27;;
29848;SDS011;16728;50.832;5.590;2023-02-16T01:03:15;38.65;;;23.80;;
29848;SDS011;16728;50.832;5.590;2023-02-16T01:06:19;37.28;;;24.05;;
29848;SDS011;16728;50.832;5.590;2023-02-16T01:09:40;40.70;;;24.95;;
29848;SDS011;16728;50.832;5.590;2023-02-16T01:13:00;39.10;;;23.77;;
29848;SDS011;16728;50.832;5.590;2023-02-16T01:16:02;37.33;;;24.45;;
29848;SDS011;16728;50.832;5.590;2023-02-16T01:19:04;37.75;;;24.58;;
29848;SDS011;16728;50.832;5.590;2023-02-16T01:22:07;38.30;;;23.30;;
29848;SDS011;16728;50.832;5.590;2023-02-16T01:25:09;37.03;;;24.35;;
29848;SDS011;16728;50.832;5.590;2023-02-16T01:28:21;37.33;;;23.90;;
29848;SDS011;16728;50.832;5.590;2023-02-16T01:31:24;47.22;;;25.27;;
29848;SDS011;16728;50.832;5.590;2023-02-16T01:34:26;34.72;;;22.67;;
29848;SDS011;16728;50.832;5.590;2023-02-16T01:37:28;36.38;;;23.65;;
29848;SDS011;16728;50.832;5.590;2023-02-16T01:43:45;37.17;;;24.70;;
29848;SDS011;16728;50.832;5.590;2023-02-16T01:46:55;38.78;;;23.60;;
29848;SDS011;16728;50.832;5.590;2023-02-16T01:50:14;40.33;;;24.77;;
29848;SDS011;16728;50.832;5.590;2023-02-16T01:56:53;40.05;;;24.08;;
29848;SDS011;16728;50.832;5.590;2023-02-16T02:03:10;38.88;;;24.08;;
29848;SDS011;16728;50.832;5.590;2023-02-16T02:06:33;39.65;;;24.65;;
29848;SDS011;16728;50.832;5.590;2023-02-16T02:09:41;40.03;;;25.73;;
29848;SDS011;16728;50.832;5.590;2023-02-16T02:12:54;38.22;;;24.25;;
29848;SDS011;16728;50.832;5.590;2023-02-16T02:16:04;43.28;;;25.30;;
29848;SDS011;16728;50.832;5.590;2023-02-16T02:19:07;37.25;;;24.55;;
29848;SDS011;16728;50.832;5.590;2023-02-16T02:29:05;41.30;;;24.02;;
29848;SDS011;16728;50.832;5.590;2023-02-16T02:35:42;41.22;;;24.35;;
29848;SDS011;16728;50.832;5.590;2023-02-16T02:39:01;36.97;;;23.92;;
29848;SDS011;16728;50.832;5.590;2023-02-16T02:45:57;40.78;;;24.95;;
29848;SDS011;16728;50.832;5.590;2023-02-16T02:49:05;38.72;;;22.95;;
29848;SDS011;16728;50.832;5.590;2023-02-16T02:52:07;35.40;;;23.50;;
29848;SDS011;16728;50.832;5.590;2023-02-16T02:55:10;38.05;;;23.13;;
29848;SDS011;16728;50.832;5.590;2023-02-16T02:58:31;38.10;;;24.08;;
29848;SDS011;16728;50.832;5.590;2023-02-16T03:01:55;37.72;;;23.55;;
29848;SDS011;16728;50.832;5.590;2023-02-16T03:05:01;33.88;;;22.25;;
29848;SDS011;16728;50.832;5.590;2023-02-16T03:08:09;37.00;;;23.27;;
29848;SDS011;16728;50.832;5.590;2023-02-16T03:11:18;35.45;;;24.58;;
29848;SDS011;16728;50.832;5.590;2023-02-16T03:17:46;34.05;;;22.90;;
29848;SDS011;16728;50.832;5.590;2023-02-16T03:21:07;37.25;;;23.38;;
29848;SDS011;16728;50.832;5.590;2023-02-16T03:24:30;39.10;;;25.52;;
29848;SDS011;16728;50.832;5.590;2023-02-16T03:27:52;33.25;;;21.50;;
29848;SDS011;16728;50.832;5.590;2023-02-16T03:31:16;33.13;;;23.30;;
29848;SDS011;16728;50.832;5.590;2023-02-16T03:34:21;35.88;;;22.67;;
29848;SDS011;16728;50.832;5.590;2023-02-16T03:37:23;34.05;;;23.08;;
29848;SDS011;16728;50.832;5.590;2023-02-16T03:40:25;33.78;;;22.92;;
29848;SDS011;16728;50.832;5.590;2023-02-16T03:43:30;36.10;;;23.83;;
29848;SDS011;16728;50.832;5.590;2023-02-16T03:46:32;33.97;;;23.30;;
29848;SDS011;16728;50.832;5.590;2023-02-16T03:49:34;36.80;;;22.85;;
29848;SDS011;16728;50.832;5.590;2023-02-16T03:52:37;37.20;;;23.30;;
29848;SDS011;16728;50.832;5.590;2023-02-16T03:55:43;35.80;;;24.05;;
29848;SDS011;16728;50.832;5.590;2023-02-16T03:58:46;32.75;;;21.80;;
29848;SDS011;16728;50.832;5.590;2023-02-16T04:01:48;34.47;;;23.20;;
29848;SDS011;16728;50.832;5.590;2023-02-16T04:04:50;33.85;;;22.55;;
29848;SDS011;16728;50.832;5.590;2023-02-16T04:07:52;33.30;;;22.60;;
29848;SDS011;16728;50.832;5.590;2023-02-16T04:10:54;34.20;;;22.25;;
29848;SDS011;16728;50.832;5.590;2023-02-16T04:16:59;34.63;;;21.98;;
29848;SDS011;16728;50.832;5.590;2023-02-16T04:20:01;32.85;;;21.08;;
29848;SDS011;16728;50.832;5.590;2023-02-16T04:23:03;31.77;;;22.80;;
29848;SDS011;16728;50.832;5.590;2023-02-16T04:26:05;35.72;;;22.05;;
29848;SDS011;16728;50.832;5.590;2023-02-16T04:29:07;32.78;;;22.67;;
29848;SDS011;16728;50.832;5.590;2023-02-16T04:32:09;34.15;;;21.92;;
29848;SDS011;16728;50.832;5.590;2023-02-16T04:35:13;30.60;;;21.15;;
29848;SDS011;16728;50.832;5.590;2023-02-16T04:38:16;33.55;;;22.30;;
29848;SDS011;16728;50.832;5.590;2023-02-16T04:41:17;32.03;;;21.90;;
29848;SDS011;16728;50.832;5.590;2023-02-16T04:44:19;33.63;;;23.10;;
29848;SDS011;16728;50.832;5.590;2023-02-16T04:47:21;31.40;;;21.48;;
29848;SDS011;16728;50.832;5.590;2023-02-16T04:50:26;30.45;;;21.35;;
29848;SDS011;16728;50.832;5.590;2023-02-16T04:53:27;30.25;;;21.92;;
29848;SDS011;16728;50.832;5.590;2023-02-16T04:56:29;36.60;;;21.92;;
29848;SDS011;16728;50.832;5.590;2023-02-16T04:59:31;31.92;;;22.98;;
29848;SDS011;16728;50.832;5.590;2023-02-16T05:02:33;34.45;;;22.77;;
29848;SDS011;16728;50.832;5.590;2023-02-16T05:05:35;31.85;;;21.75;;
29848;SDS011;16728;50.832;5.590;2023-02-16T05:08:37;32.90;;;22.08;;
29848;SDS011;16728;50.832;5.590;2023-02-16T05:11:39;33.80;;;21.30;;
29848;SDS011;16728;50.832;5.590;2023-02-16T05:14:59;33.05;;;21.60;;
29848;SDS011;16728;50.832;5.590;2023-02-16T05:18:01;33.15;;;21.15;;
29848;SDS011;16728;50.832;5.590;2023-02-16T05:21:03;31.23;;;22.10;;
29848;SDS011;16728;50.832;5.590;2023-02-16T05:24:24;30.95;;;21.38;;
29848;SDS011;16728;50.832;5.590;2023-02-16T05:27:29;33.42;;;21.90;;
29848;SDS011;16728;50.832;5.590;2023-02-16T05:30:31;34.35;;;22.60;;
29848;SDS011;16728;50.832;5.590;2023-02-16T05:33:33;30.35;;;21.67;;
29848;SDS011;16728;50.832;5.590;2023-02-16T05:36:35;33.97;;;21.70;;
29848;SDS011;16728;50.832;5.590;2023-02-16T05:39:37;32.72;;;22.02;;
29848;SDS011;16728;50.832;5.590;2023-02-16T05:42:39;30.60;;;20.80;;
29848;SDS011;16728;50.832;5.590;2023-02-16T05:45:41;37.95;;;21.17;;
29848;SDS011;16728;50.832;5.590;2023-02-16T05:48:42;32.08;;;21.65;;
29848;SDS011;16728;50.832;5.590;2023-02-16T05:51:44;30.40;;;21.17;;
29848;SDS011;16728;50.832;5.590;2023-02-16T05:54:47;32.72;;;21.27;;
29848;SDS011;16728;50.832;5.590;2023-02-16T05:57:49;35.20;;;21.75;;
29848;SDS011;16728;50.832;5.590;2023-02-16T06:00:51;32.78;;;21.67;;
29848;SDS011;16728;50.832;5.590;2023-02-16T06:03:54;32.20;;;21.13;;
29848;SDS011;16728;50.832;5.590;2023-02-16T06:06:56;32.30;;;21.35;;
29848;SDS011;16728;50.832;5.590;2023-02-16T06:09:58;34.45;;;22.70;;
29848;SDS011;16728;50.832;5.590;2023-02-16T06:13:00;35.53;;;21.77;;
29848;SDS011;16728;50.832;5.590;2023-02-16T06:16:02;29.27;;;20.90;;
29848;SDS011;16728;50.832;5.590;2023-02-16T06:19:04;34.28;;;21.45;;
29848;SDS011;16728;50.832;5.590;2023-02-16T06:22:06;32.38;;;21.60;;
29848;SDS011;16728;50.832;5.590;2023-02-16T06:25:08;33.10;;;22.35;;
29848;SDS011;16728;50.832;5.590;2023-02-16T06:28:10;33.03;;;21.63;;
29848;SDS011;16728;50.832;5.590;2023-02-16T06:31:12;32.53;;;22.17;;
29848;SDS011;16728;50.832;5.590;2023-02-16T06:34:15;28.00;;;19.70;;
29848;SDS011;16728;50.832;5.590;2023-02-16T06:37:16;27.88;;;19.50;;
29848;SDS011;16728;50.832;5.590;2023-02-16T06:40:18;35.15;;;23.20;;
29848;SDS011;16728;50.832;5.590;2023-02-16T06:43:20;26.52;;;19.63;;
29848;SDS011;16728;50.832;5.590;2023-02-16T06:46:22;30.73;;;21.15;;
29848;SDS011;16728;50.832;5.590;2023-02-16T06:49:25;30.47;;;20.77;;
29848;SDS011;16728;50.832;5.590;2023-02-16T06:52:28;28.05;;;20.10;;
29848;SDS011;16728;50.832;5.590;2023-02-16T06:55:30;31.25;;;21.88;;
29848;SDS011;16728;50.832;5.590;2023-02-16T06:58:37;28.77;;;20.23;;
29848;SDS011;16728;50.832;5.590;2023-02-16T07:01:38;30.80;;;20.42;;
29848;SDS011;16728;50.832;5.590;2023-02-16T07:04:40;34.08;;;21.92;;
29848;SDS011;16728;50.832;5.590;2023-02-16T07:07:42;28.75;;;19.55;;
29848;SDS011;16728;50.832;5.590;2023-02-16T07:10:45;26.63;;;19.65;;
29848;SDS011;16728;50.832;5.590;2023-02-16T07:13:50;30.83;;;20.02;;
29848;SDS011;16728;50.832;5.590;2023-02-16T07:16:52;27.38;;;20.83;;
29848;SDS011;16728;50.832;5.590;2023-02-16T07:19:54;29.23;;;20.88;;
29848;SDS011;16728;50.832;5.590;2023-02-16T07:22:59;28.10;;;20.00;;
29848;SDS011;16728;50.832;5.590;2023-02-16T07:26:01;29.08;;;21.02;;
29848;SDS011;16728;50.832;5.590;2023-02-16T07:29:03;33.65;;;21.67;;
29848;SDS011;16728;50.832;5.590;2023-02-16T07:32:05;37.72;;;21.15;;
29848;SDS011;16728;50.832;5.590;2023-02-16T07:35:08;33.75;;;20.60;;
29848;SDS011;16728;50.832;5.590;2023-02-16T07:38:10;31.20;;;20.55;;
29848;SDS011;16728;50.832;5.590;2023-02-16T07:41:12;30.23;;;21.20;;
29848;SDS011;16728;50.832;5.590;2023-02-16T07:44:14;30.83;;;20.60;;
29848;SDS011;16728;50.832;5.590;2023-02-16T07:47:16;35.97;;;22.05;;
29848;SDS011;16728;50.832;5.590;2023-02-16T07:50:18;31.65;;;20.92;;
29848;SDS011;16728;50.832;5.590;2023-02-16T07:53:20;31.65;;;21.80;;
29848;SDS011;16728;50.832;5.590;2023-02-16T07:56:24;34.53;;;20.83;;
29848;SDS011;16728;50.832;5.590;2023-02-16T07:59:29;33.75;;;21.90;;
29848;SDS011;16728;50.832;5.590;2023-02-16T08:02:31;32.72;;;21.83;;
29848;SDS011;16728;50.832;5.590;2023-02-16T08:05:34;34.90;;;20.83;;
29848;SDS011;16728;50.832;5.590;2023-02-16T08:08:36;35.05;;;21.73;;
29848;SDS011;16728;50.832;5.590;2023-02-16T08:11:39;31.02;;;21.55;;
29848;SDS011;16728;50.832;5.590;2023-02-16T08:14:41;35.27;;;20.90;;
29848;SDS011;16728;50.832;5.590;2023-02-16T08:17:43;32.30;;;22.10;;
29848;SDS011;16728;50.832;5.590;2023-02-16T08:20:45;30.42;;;21.15;;
29848;SDS011;16728;50.832;5.590;2023-02-16T08:24:04;32.83;;;21.48;;
29848;SDS011;16728;50.832;5.590;2023-02-16T08:27:08;31.52;;;20.15;;
29848;SDS011;16728;50.832;5.590;2023-02-16T08:30:10;28.27;;;19.73;;
29848;SDS011;16728;50.832;5.590;2023-02-16T08:33:14;29.80;;;20.38;;
29848;SDS011;16728;50.832;5.590;2023-02-16T08:36:22;29.90;;;19.13;;
29848;SDS011;16728;50.832;5.590;2023-02-16T08:39:30;29.45;;;21.00;;
29848;SDS011;16728;50.832;5.590;2023-02-16T08:42:33;28.95;;;20.20;;
29848;SDS011;16728;50.832;5.590;2023-02-16T08:45:34;29.60;;;20.50;;
29848;SDS011;16728;50.832;5.590;2023-02-16T08:48:36;29.90;;;19.83;;
29848;SDS011;16728;50.832;5.590;2023-02-16T08:51:41;28.67;;;20.55;;
29848;SDS011;16728;50.832;5.590;2023-02-16T08:54:44;29.33;;;20.10;;
29848;SDS011;16728;50.832;5.590;2023-02-16T08:57:46;31.85;;;19.52;;
29848;SDS011;16728;50.832;5.590;2023-02-16T09:00:48;31.23;;;20.73;;
29848;SDS011;16728;50.832;5.590;2023-02-16T09:03:50;28.60;;;19.27;;
29848;SDS011;16728;50.832;5.590;2023-02-16T09:06:53;32.08;;;19.05;;
29848;SDS011;16728;50.832;5.590;2023-02-16T09:09:56;31.05;;;19.25;;
29848;SDS011;16728;50.832;5.590;2023-02-16T09:12:58;37.65;;;19.98;;
29848;SDS011;16728;50.832;5.590;2023-02-16T09:16:03;40.03;;;20.48;;
29848;SDS011;16728;50.832;5.590;2023-02-16T09:19:07;25.35;;;18.90;;
29848;SDS011;16728;50.832;5.590;2023-02-16T09:22:08;27.30;;;17.95;;
29848;SDS011;16728;50.832;5.590;2023-02-16T09:25:11;25.58;;;18.13;;
29848;SDS011;16728;50.832;5.590;2023-02-16T09:28:13;27.35;;;19.17;;
29848;SDS011;16728;50.832;5.590;2023-02-16T09:31:25;28.87;;;18.53;;
29848;SDS011;16728;50.832;5.590;2023-02-16T09:34:29;67.47;;;20.88;;
29848;SDS011;16728;50.832;5.590;2023-02-16T09:37:31;35.10;;;18.83;;
29848;SDS011;16728;50.832;5.590;2023-02-16T09:40:33;26.83;;;18.38;;
29848;SDS011;16728;50.832;5.590;2023-02-16T09:44:12;29.58;;;19.00;;
29848;SDS011;16728;50.832;5.590;2023-02-16T09:47:13;26.67;;;17.30;;
29848;SDS011;16728;50.832;5.590;2023-02-16T09:50:23;31.40;;;17.73;;
29848;SDS011;16728;50.832;5.590;2023-02-16T09:53:52;26.25;;;18.55;;
29848;SDS011;16728;50.832;5.590;2023-02-16T09:57:17;29.85;;;18.65;;
29848;SDS011;16728;50.832;5.590;2023-02-16T10:00:48;31.38;;;19.13;;
29848;SDS011;16728;50.832;5.590;2023-02-16T10:20:51;32.17;;;19.15;;
29848;SDS011;16728;50.832;5.590;2023-02-16T10:23:57;28.35;;;18.95;;
29848;SDS011;16728;50.832;5.590;2023-02-16T10:27:04;25.58;;;18.88;;
29848;SDS011;16728;50.832;5.590;2023-02-16T10:30:16;32.08;;;19.92;;
29848;SDS011;16728;50.832;5.590;2023-02-16T10:33:34;27.20;;;18.73;;
29848;SDS011;16728;50.832;5.590;2023-02-16T10:37:35;36.00;;;20.77;;
29848;SDS011;16728;50.832;5.590;2023-02-16T10:43:55;37.33;;;19.75;;
29848;SDS011;16728;50.832;5.590;2023-02-16T10:47:05;29.88;;;20.20;;
29848;SDS011;16728;50.832;5.590;2023-02-16T10:53:46;29.27;;;20.45;;
29848;SDS011;16728;50.832;5.590;2023-02-16T10:56:52;28.63;;;20.55;;
29848;SDS011;16728;50.832;5.590;2023-02-16T10:59:58;28.25;;;20.83;;
29848;SDS011;16728;50.832;5.590;2023-02-16T11:03:09;29.38;;;20.50;;
29848;SDS011;16728;50.832;5.590;2023-02-16T11:06:18;34.10;;;21.40;;
29848;SDS011;16728;50.832;5.590;2023-02-16T11:09:26;32.85;;;21.25;;
29848;SDS011;16728;50.832;5.590;2023-02-16T11:15:39;31.25;;;21.83;;
29848;SDS011;16728;50.832;5.590;2023-02-16T11:18:42;38.60;;;21.47;;
29848;SDS011;16728;50.832;5.590;2023-02-16T11:27:56;34.35;;;22.05;;
29848;SDS011;16728;50.832;5.590;2023-02-16T11:34:31;35.67;;;22.95;;
29848;SDS011;16728;50.832;5.590;2023-02-16T11:37:36;38.63;;;22.67;;
29848;SDS011;16728;50.832;5.590;2023-02-16T11:40:41;32.38;;;22.67;;
29848;SDS011;16728;50.832;5.590;2023-02-16T11:43:52;35.90;;;23.23;;
29848;SDS011;16728;50.832;5.590;2023-02-16T11:46:56;32.85;;;22.88;;
29848;SDS011;16728;50.832;5.590;2023-02-16T11:50:17;31.80;;;22.13;;
29848;SDS011;16728;50.832;5.590;2023-02-16T11:53:30;34.13;;;22.65;;
29848;SDS011;16728;50.832;5.590;2023-02-16T11:56:33;28.58;;;20.90;;
29848;SDS011;16728;50.832;5.590;2023-02-16T11:59:37;29.67;;;21.60;;
29848;SDS011;16728;50.832;5.590;2023-02-16T12:06:45;34.15;;;21.33;;
29848;SDS011;16728;50.832;5.590;2023-02-16T12:16:49;32.55;;;21.10;;
29848;SDS011;16728;50.832;5.590;2023-02-16T12:39:30;30.98;;;22.08;;
29848;SDS011;16728;50.832;5.590;2023-02-16T12:46:20;28.92;;;21.55;;
29848;SDS011;16728;50.832;5.590;2023-02-16T12:50:04;30.02;;;21.38;;
29848;SDS011;16728;50.832;5.590;2023-02-16T12:53:05;28.35;;;21.98;;
29848;SDS011;16728;50.832;5.590;2023-02-16T12:56:44;33.25;;;21.77;;
29848;SDS011;16728;50.832;5.590;2023-02-16T13:06:45;32.50;;;21.58;;
29848;SDS011;16728;50.832;5.590;2023-02-16T13:09:58;34.53;;;21.33;;
29848;SDS011;16728;50.832;5.590;2023-02-16T13:13:12;32.13;;;21.98;;
29848;SDS011;16728;50.832;5.590;2023-02-16T13:16:57;29.73;;;21.88;;
29848;SDS011;16728;50.832;5.590;2023-02-16T13:20:13;31.85;;;21.23;;
29848;SDS011;16728;50.832;5.590;2023-02-16T13:34:10;27.45;;;18.80;;
29848;SDS011;16728;50.832;5.590;2023-02-16T13:37:52;27.77;;;18.52;;
29848;SDS011;16728;50.832;5.590;2023-02-16T13:44:59;26.25;;;17.98;;
29848;SDS011;16728;50.832;5.590;2023-02-16T13:48:27;29.25;;;18.40;;
29848;SDS011;16728;50.832;5.590;2023-02-16T13:51:38;32.88;;;18.88;;
29848;SDS011;16728;50.832;5.590;2023-02-16T13:54:49;24.55;;;17.30;;
29848;SDS011;16728;50.832;5.590;2023-02-16T14:11:23;20.50;;;15.13;;
29848;SDS011;16728;50.832;5.590;2023-02-16T14:14:28;23.13;;;15.05;;
29848;SDS011;16728;50.832;5.590;2023-02-16T14:17:32;23.02;;;13.85;;
29848;SDS011;16728;50.832;5.590;2023-02-16T14:24:28;19.83;;;14.57;;
29848;SDS011;16728;50.832;5.590;2023-02-16T14:27:41;20.40;;;14.18;;
29848;SDS011;16728;50.832;5.590;2023-02-16T14:31:02;18.48;;;13.93;;
29848;SDS011;16728;50.832;5.590;2023-02-16T14:34:16;20.38;;;13.60;;
29848;SDS011;16728;50.832;5.590;2023-02-16T14:37:28;19.85;;;13.68;;
29848;SDS011;16728;50.832;5.590;2023-02-16T14:47:19;19.42;;;13.15;;
29848;SDS011;16728;50.832;5.590;2023-02-16T15:00:52;30.15;;;16.08;;
29848;SDS011;16728;50.832;5.590;2023-02-16T15:04:04;23.23;;;14.40;;
29848;SDS011;16728;50.832;5.590;2023-02-16T15:07:06;26.38;;;14.77;;
29848;SDS011;16728;50.832;5.590;2023-02-16T15:10:11;24.90;;;13.50;;
29848;SDS011;16728;50.832;5.590;2023-02-16T15:13:28;18.58;;;12.32;;
29848;SDS011;16728;50.832;5.590;2023-02-16T15:16:31;16.98;;;12.18;;
29848;SDS011;16728;50.832;5.590;2023-02-16T15:19:34;16.30;;;10.73;;
29848;SDS011;16728;50.832;5.590;2023-02-16T15:25:51;16.08;;;9.85;;
29848;SDS011;16728;50.832;5.590;2023-02-16T15:32:16;19.02;;;11.40;;
29848;SDS011;16728;50.832;5.590;2023-02-16T15:35:35;15.23;;;9.52;;
29848;SDS011;16728;50.832;5.590;2023-02-16T15:39:02;12.85;;;10.18;;
29848;SDS011;16728;50.832;5.590;2023-02-16T15:42:10;18.27;;;10.70;;
29848;SDS011;16728;50.832;5.590;2023-02-16T15:45:30;15.27;;;10.15;;
29848;SDS011;16728;50.832;5.590;2023-02-16T15:48:36;18.23;;;10.10;;
29848;SDS011;16728;50.832;5.590;2023-02-16T15:51:38;13.65;;;10.30;;
29848;SDS011;16728;50.832;5.590;2023-02-16T15:54:42;18.35;;;10.50;;
29848;SDS011;16728;50.832;5.590;2023-02-16T15:57:45;16.55;;;10.80;;
29848;SDS011;16728;50.832;5.590;2023-02-16T16:00:48;18.15;;;10.55;;
29848;SDS011;16728;50.832;5.590;2023-02-16T16:03:50;20.23;;;9.98;;
29848;SDS011;16728;50.832;5.590;2023-02-16T16:06:53;16.55;;;10.30;;
29848;SDS011;16728;50.832;5.590;2023-02-16T16:09:55;15.23;;;10.03;;
29848;SDS011;16728;50.832;5.590;2023-02-16T16:13:03;17.48;;;10.43;;
29848;SDS011;16728;50.832;5.590;2023-02-16T16:16:07;17.50;;;10.85;;
29848;SDS011;16728;50.832;5.590;2023-02-16T16:22:38;17.73;;;11.43;;
29848;SDS011;16728;50.832;5.590;2023-02-16T16:25:44;17.50;;;11.48;;
29848;SDS011;16728;50.832;5.590;2023-02-16T16:28:49;14.10;;;10.68;;
29848;SDS011;16728;50.832;5.590;2023-02-16T16:31:54;15.20;;;10.40;;
29848;SDS011;16728;50.832;5.590;2023-02-16T16:34:58;15.38;;;10.18;;
29848;SDS011;16728;50.832;5.590;2023-02-16T16:37:59;23.60;;;11.05;;
29848;SDS011;16728;50.832;5.590;2023-02-16T16:41:02;14.98;;;10.27;;
29848;SDS011;16728;50.832;5.590;2023-02-16T16:44:07;22.27;;;11.30;;
29848;SDS011;16728;50.832;5.590;2023-02-16T16:47:22;18.02;;;10.60;;
29848;SDS011;16728;50.832;5.590;2023-02-16T16:50:29;16.80;;;11.02;;
29848;SDS011;16728;50.832;5.590;2023-02-16T16:56:43;17.20;;;10.85;;
29848;SDS011;16728;50.832;5.590;2023-02-16T16:59:45;18.98;;;10.75;;
29848;SDS011;16728;50.832;5.590;2023-02-16T17:02:47;14.93;;;9.73;;
29848;SDS011;16728;50.832;5.590;2023-02-16T17:05:49;17.77;;;10.30;;
29848;SDS011;16728;50.832;5.590;2023-02-16T17:08:51;18.95;;;10.77;;
29848;SDS011;16728;50.832;5.590;2023-02-16T17:11:55;15.63;;;10.15;;
29848;SDS011;16728;50.832;5.590;2023-02-16T17:14:58;16.42;;;11.23;;
29848;SDS011;16728;50.832;5.590;2023-02-16T17:18:02;26.25;;;12.30;;
29848;SDS011;16728;50.832;5.590;2023-02-16T17:21:05;15.85;;;10.82;;
29848;SDS011;16728;50.832;5.590;2023-02-16T17:24:07;18.92;;;10.18;;
29848;SDS011;16728;50.832;5.590;2023-02-16T17:30:12;17.77;;;11.02;;
29848;SDS011;16728;50.832;5.590;2023-02-16T17:33:14;16.48;;;11.27;;
29848;SDS011;16728;50.832;5.590;2023-02-16T17:36:16;18.77;;;11.20;;
29848;SDS011;16728;50.832;5.590;2023-02-16T17:39:19;19.13;;;11.95;;
29848;SDS011;16728;50.832;5.590;2023-02-16T17:42:21;19.38;;;12.13;;
29848;SDS011;16728;50.832;5.590;2023-02-16T17:45:23;17.23;;;11.90;;
29848;SDS011;16728;50.832;5.590;2023-02-16T17:48:26;18.77;;;12.13;;
29848;SDS011;16728;50.832;5.590;2023-02-16T17:51:30;15.07;;;11.38;;
29848;SDS011;16728;50.832;5.590;2023-02-16T17:54:36;16.60;;;11.45;;
29848;SDS011;16728;50.832;5.590;2023-02-16T17:57:39;17.75;;;11.43;;
29848;SDS011;16728;50.832;5.590;2023-02-16T18:00:42;18.98;;;12.65;;
29848;SDS011;16728;50.832;5.590;2023-02-16T18:03:45;19.95;;;12.15;;
29848;SDS011;16728;50.832;5.590;2023-02-16T18:06:47;17.63;;;12.07;;
29848;SDS011;16728;50.832;5.590;2023-02-16T18:09:49;15.90;;;12.23;;
29848;SDS011;16728;50.832;5.590;2023-02-16T18:12:50;17.75;;;12.25;;
29848;SDS011;16728;50.832;5.590;2023-02-16T18:15:52;19.52;;;12.63;;
29848;SDS011;16728;50.832;5.590;2023-02-16T18:18:55;19.85;;;12.15;;
29848;SDS011;16728;50.832;5.590;2023-02-16T18:21:59;19.92;;;13.45;;
29848;SDS011;16728;50.832;5.590;2023-02-16T18:25:01;23.20;;;13.70;;
29848;SDS011;16728;50.832;5.590;2023-02-16T18:28:03;19.27;;;14.13;;
29848;SDS011;16728;50.832;5.590;2023-02-16T18:31:05;21.65;;;13.90;;
29848;SDS011;16728;50.832;5.590;2023-02-16T18:34:08;19.83;;;14.07;;
29848;SDS011;16728;50.832;5.590;2023-02-16T18:37:11;17.47;;;13.90;;
29848;SDS011;16728;50.832;5.590;2023-02-16T18:40:14;20.95;;;13.80;;
29848;SDS011;16728;50.832;5.590;2023-02-16T18:43:18;21.00;;;12.93;;
29848;SDS011;16728;50.832;5.590;2023-02-16T18:46:20;19.37;;;14.13;;
29848;SDS011;16728;50.832;5.590;2023-02-16T18:49:22;18.65;;;14.18;;
29848;SDS011;16728;50.832;5.590;2023-02-16T18:52:24;21.77;;;13.48;;
29848;SDS011;16728;50.832;5.590;2023-02-16T18:55:26;20.58;;;14.32;;
29848;SDS011;16728;50.832;5.590;2023-02-16T18:58:42;18.85;;;14.10;;
29848;SDS011;16728;50.832;5.590;2023-02-16T19:01:57;18.35;;;14.05;;
29848;SDS011;16728;50.832;5.590;2023-02-16T19:05:03;22.13;;;15.80;;
29848;SDS011;16728;50.832;5.590;2023-02-16T19:08:07;19.75;;;13.98;;
29848;SDS011;16728;50.832;5.590;2023-02-16T19:11:24;23.23;;;15.27;;
29848;SDS011;16728;50.832;5.590;2023-02-16T19:18:39;19.92;;;14.60;;
29848;SDS011;16728;50.832;5.590;2023-02-16T19:21:44;25.60;;;14.70;;
29848;SDS011;16728;50.832;5.590;2023-02-16T19:24:46;22.65;;;15.93;;
29848;SDS011;16728;50.832;5.590;2023-02-16T19:27:50;21.10;;;15.95;;
29848;SDS011;16728;50.832;5.590;2023-02-16T19:30:52;23.27;;;16.00;;
29848;SDS011;16728;50.832;5.590;2023-02-16T19:33:54;24.15;;;15.48;;
29848;SDS011;16728;50.832;5.590;2023-02-16T19:39:59;23.20;;;15.48;;
29848;SDS011;16728;50.832;5.590;2023-02-16T19:43:01;22.38;;;15.95;;
29848;SDS011;16728;50.832;5.590;2023-02-16T19:46:04;24.95;;;17.35;;
29848;SDS011;16728;50.832;5.590;2023-02-16T19:49:07;24.70;;;18.17;;
29848;SDS011;16728;50.832;5.590;2023-02-16T19:52:09;27.27;;;17.33;;
29848;SDS011;16728;50.832;5.590;2023-02-16T19:55:11;24.37;;;16.20;;
29848;SDS011;16728;50.832;5.590;2023-02-16T19:58:13;22.58;;;16.40;;
29848;SDS011;16728;50.832;5.590;2023-02-16T20:01:16;25.10;;;17.60;;
29848;SDS011;16728;50.832;5.590;2023-02-16T20:04:25;27.95;;;17.45;;
29848;SDS011;16728;50.832;5.590;2023-02-16T20:07:27;27.95;;;17.33;;
29848;SDS011;16728;50.832;5.590;2023-02-16T20:10:29;28.08;;;16.25;;
29848;SDS011;16728;50.832;5.590;2023-02-16T20:13:34;27.15;;;17.48;;
29848;SDS011;16728;50.832;5.590;2023-02-16T20:16:37;25.92;;;16.88;;
29848;SDS011;16728;50.832;5.590;2023-02-16T20:19:39;24.63;;;15.32;;
29848;SDS011;16728;50.832;5.590;2023-02-16T20:22:41;23.95;;;15.77;;
29848;SDS011;16728;50.832;5.590;2023-02-16T20:25:43;23.88;;;16.08;;
29848;SDS011;16728;50.832;5.590;2023-02-16T20:28:45;25.70;;;16.30;;
29848;SDS011;16728;50.832;5.590;2023-02-16T20:31:50;24.85;;;15.85;;
29848;SDS011;16728;50.832;5.590;2023-02-16T20:34:54;23.48;;;16.13;;
29848;SDS011;16728;50.832;5.590;2023-02-16T20:37:56;25.60;;;15.57;;
29848;SDS011;16728;50.832;5.590;2023-02-16T20:40:58;20.35;;;14.70;;
29848;SDS011;16728;50.832;5.590;2023-02-16T20:44:00;24.15;;;14.98;;
29848;SDS011;16728;50.832;5.590;2023-02-16T20:47:03;23.93;;;15.33;;
29848;SDS011;16728;50.832;5.590;2023-02-16T20:50:07;25.65;;;15.90;;
29848;SDS011;16728;50.832;5.590;2023-02-16T20:53:10;24.47;;;14.77;;
29848;SDS011;16728;50.832;5.590;2023-02-16T20:59:20;21.83;;;15.77;;
29848;SDS011;16728;50.832;5.590;2023-02-16T21:02:22;21.35;;;14.48;;
29848;SDS011;16728;50.832;5.590;2023-02-16T21:05:24;21.10;;;13.85;;
29848;SDS011;16728;50.832;5.590;2023-02-16T21:08:26;24.42;;;15.07;;
29848;SDS011;16728;50.832;5.590;2023-02-16T21:11:28;23.15;;;14.77;;
29848;SDS011;16728;50.832;5.590;2023-02-16T21:14:30;22.33;;;13.95;;
29848;SDS011;16728;50.832;5.590;2023-02-16T21:17:32;23.50;;;14.40;;